Terminal Aerodrome Forecast
Issued by NWS

Home | Current Version | Previous Version | Text Only | Print | Product List | Glossary On
Versions: 1 2 3 4 5 6 7 8 9 10 11 12 13 14 15 16 17 18 19 20 21 22 23 24 25 26 27
000
FTUS41 KBTV 240952 AAA
TAFPBG
TAF AMD
KPBG 240952Z 2410/2506 01012KT 6SM -FZRA OVC060
      TEMPO 2410/2414 5SM -FZRA BR OVC035
     FM241400 36012KT 5SM -FZRA BR OVC035
     FM241600 36014KT 5SM -FZRA BR OVC020
     FM242000 36014G20KT 4SM -FZRA BR OVC018
     FM250000 35008KT 5SM -FZRA BR OVC015=

USA.gov is the U.S. government's official web portal to all federal, state and local government web resources and services.